sensor_id;sensor_type;location;lat;lon;timestamp;P1;durP1;ratioP1;P2;durP2;ratioP2
15159;SDS011;7680;48.800;9.680;2023-06-10T00:00:59;10.50;;;9.80;;
15159;SDS011;7680;48.800;9.680;2023-06-10T00:03:32;11.32;;;10.43;;
15159;SDS011;7680;48.800;9.680;2023-06-10T00:06:05;10.30;;;9.60;;
15159;SDS011;7680;48.800;9.680;2023-06-10T00:08:40;10.68;;;9.93;;
15159;SDS011;7680;48.800;9.680;2023-06-10T00:11:13;10.90;;;10.00;;
15159;SDS011;7680;48.800;9.680;2023-06-10T00:13:46;11.07;;;10.10;;
15159;SDS011;7680;48.800;9.680;2023-06-10T00:16:19;10.07;;;9.35;;
15159;SDS011;7680;48.800;9.680;2023-06-10T00:18:53;10.40;;;9.70;;
15159;SDS011;7680;48.800;9.680;2023-06-10T00:21:32;10.68;;;9.77;;
15159;SDS011;7680;48.800;9.680;2023-06-10T00:24:10;9.95;;;9.25;;
15159;SDS011;7680;48.800;9.680;2023-06-10T00:26:44;10.55;;;9.75;;
15159;SDS011;7680;48.800;9.680;2023-06-10T00:29:19;10.63;;;9.82;;
15159;SDS011;7680;48.800;9.680;2023-06-10T00:31:52;10.45;;;9.48;;
15159;SDS011;7680;48.800;9.680;2023-06-10T00:34:28;10.40;;;9.60;;
15159;SDS011;7680;48.800;9.680;2023-06-10T00:37:02;11.20;;;10.27;;
15159;SDS011;7680;48.800;9.680;2023-06-10T00:39:36;10.70;;;9.90;;
15159;SDS011;7680;48.800;9.680;2023-06-10T00:42:09;11.50;;;10.60;;
15159;SDS011;7680;48.800;9.680;2023-06-10T00:44:42;10.95;;;10.05;;
15159;SDS011;7680;48.800;9.680;2023-06-10T00:47:15;11.25;;;10.45;;
15159;SDS011;7680;48.800;9.680;2023-06-10T00:49:49;11.02;;;10.23;;
15159;SDS011;7680;48.800;9.680;2023-06-10T00:52:23;11.35;;;10.45;;
15159;SDS011;7680;48.800;9.680;2023-06-10T00:55:01;10.43;;;9.73;;
15159;SDS011;7680;48.800;9.680;2023-06-10T00:57:35;11.25;;;10.45;;
15159;SDS011;7680;48.800;9.680;2023-06-10T01:00:10;10.82;;;9.98;;
15159;SDS011;7680;48.800;9.680;2023-06-10T01:02:44;11.85;;;10.95;;
15159;SDS011;7680;48.800;9.680;2023-06-10T01:05:17;11.43;;;10.57;;
15159;SDS011;7680;48.800;9.680;2023-06-10T01:07:54;12.10;;;11.20;;
15159;SDS011;7680;48.800;9.680;2023-06-10T01:10:37;11.73;;;10.80;;
15159;SDS011;7680;48.800;9.680;2023-06-10T01:13:14;11.48;;;10.68;;
15159;SDS011;7680;48.800;9.680;2023-06-10T01:15:49;12.77;;;11.77;;
15159;SDS011;7680;48.800;9.680;2023-06-10T01:18:29;13.07;;;12.18;;
15159;SDS011;7680;48.800;9.680;2023-06-10T01:21:03;12.82;;;11.82;;
15159;SDS011;7680;48.800;9.680;2023-06-10T01:23:40;12.90;;;11.90;;
15159;SDS011;7680;48.800;9.680;2023-06-10T01:26:13;12.57;;;11.68;;
15159;SDS011;7680;48.800;9.680;2023-06-10T01:28:48;13.52;;;12.48;;
15159;SDS011;7680;48.800;9.680;2023-06-10T01:31:29;12.77;;;11.77;;
15159;SDS011;7680;48.800;9.680;2023-06-10T01:34:10;12.15;;;11.20;;
15159;SDS011;7680;48.800;9.680;2023-06-10T01:36:47;11.77;;;10.98;;
15159;SDS011;7680;48.800;9.680;2023-06-10T01:39:23;11.95;;;10.98;;
15159;SDS011;7680;48.800;9.680;2023-06-10T01:41:57;11.32;;;10.60;;
15159;SDS011;7680;48.800;9.680;2023-06-10T01:44:30;11.77;;;10.93;;
15159;SDS011;7680;48.800;9.680;2023-06-10T01:47:04;12.73;;;11.73;;
15159;SDS011;7680;48.800;9.680;2023-06-10T01:49:38;12.25;;;11.25;;
15159;SDS011;7680;48.800;9.680;2023-06-10T01:52:11;11.88;;;10.98;;
15159;SDS011;7680;48.800;9.680;2023-06-10T01:54:46;12.23;;;11.35;;
15159;SDS011;7680;48.800;9.680;2023-06-10T01:57:19;12.05;;;11.20;;
15159;SDS011;7680;48.800;9.680;2023-06-10T01:59:52;11.88;;;10.98;;
15159;SDS011;7680;48.800;9.680;2023-06-10T02:02:25;12.13;;;11.23;;
15159;SDS011;7680;48.800;9.680;2023-06-10T02:04:58;12.43;;;11.43;;
15159;SDS011;7680;48.800;9.680;2023-06-10T02:07:32;12.18;;;11.18;;
15159;SDS011;7680;48.800;9.680;2023-06-10T02:10:07;12.23;;;11.32;;
15159;SDS011;7680;48.800;9.680;2023-06-10T02:12:41;11.57;;;10.68;;
15159;SDS011;7680;48.800;9.680;2023-06-10T02:15:14;11.40;;;10.60;;
15159;SDS011;7680;48.800;9.680;2023-06-10T02:17:47;11.77;;;10.98;;
15159;SDS011;7680;48.800;9.680;2023-06-10T02:20:20;11.98;;;11.07;;
15159;SDS011;7680;48.800;9.680;2023-06-10T02:22:54;11.98;;;11.10;;
15159;SDS011;7680;48.800;9.680;2023-06-10T02:25:28;12.07;;;11.07;;
15159;SDS011;7680;48.800;9.680;2023-06-10T02:28:02;11.23;;;10.32;;
15159;SDS011;7680;48.800;9.680;2023-06-10T02:30:35;11.07;;;10.18;;
15159;SDS011;7680;48.800;9.680;2023-06-10T02:33:11;11.40;;;10.50;;
15159;SDS011;7680;48.800;9.680;2023-06-10T02:35:44;12.32;;;11.30;;
15159;SDS011;7680;48.800;9.680;2023-06-10T02:38:18;10.68;;;9.98;;
15159;SDS011;7680;48.800;9.680;2023-06-10T02:40:52;10.98;;;10.23;;
15159;SDS011;7680;48.800;9.680;2023-06-10T02:43:25;11.48;;;10.57;;
15159;SDS011;7680;48.800;9.680;2023-06-10T02:45:58;11.35;;;10.45;;
15159;SDS011;7680;48.800;9.680;2023-06-10T02:48:31;11.18;;;10.38;;
15159;SDS011;7680;48.800;9.680;2023-06-10T02:51:12;11.25;;;10.45;;
15159;SDS011;7680;48.800;9.680;2023-06-10T02:53:46;11.52;;;10.63;;
15159;SDS011;7680;48.800;9.680;2023-06-10T02:56:20;11.10;;;10.30;;
15159;SDS011;7680;48.800;9.680;2023-06-10T02:58:53;10.88;;;10.02;;
15159;SDS011;7680;48.800;9.680;2023-06-10T03:01:26;11.38;;;10.48;;
15159;SDS011;7680;48.800;9.680;2023-06-10T03:04:00;11.13;;;10.32;;
15159;SDS011;7680;48.800;9.680;2023-06-10T03:06:34;10.50;;;9.70;;
15159;SDS011;7680;48.800;9.680;2023-06-10T03:09:07;11.15;;;10.35;;
15159;SDS011;7680;48.800;9.680;2023-06-10T03:11:41;11.10;;;10.30;;
15159;SDS011;7680;48.800;9.680;2023-06-10T03:14:15;10.88;;;10.02;;
15159;SDS011;7680;48.800;9.680;2023-06-10T03:16:48;10.52;;;9.70;;
15159;SDS011;7680;48.800;9.680;2023-06-10T03:19:21;11.32;;;10.43;;
15159;SDS011;7680;48.800;9.680;2023-06-10T03:22:06;11.38;;;10.45;;
15159;SDS011;7680;48.800;9.680;2023-06-10T03:24:41;11.32;;;10.43;;
15159;SDS011;7680;48.800;9.680;2023-06-10T03:27:16;10.90;;;10.00;;
15159;SDS011;7680;48.800;9.680;2023-06-10T03:29:50;10.57;;;9.77;;
15159;SDS011;7680;48.800;9.680;2023-06-10T03:32:23;10.32;;;9.45;;
15159;SDS011;7680;48.800;9.680;2023-06-10T03:34:56;10.75;;;9.85;;
15159;SDS011;7680;48.800;9.680;2023-06-10T03:37:29;10.20;;;9.50;;
15159;SDS011;7680;48.800;9.680;2023-06-10T03:40:02;10.52;;;9.73;;
15159;SDS011;7680;48.800;9.680;2023-06-10T03:42:37;10.10;;;9.40;;
15159;SDS011;7680;48.800;9.680;2023-06-10T03:45:10;10.38;;;9.57;;
15159;SDS011;7680;48.800;9.680;2023-06-10T03:47:44;9.75;;;9.05;;
15159;SDS011;7680;48.800;9.680;2023-06-10T03:50:19;9.82;;;9.02;;
15159;SDS011;7680;48.800;9.680;2023-06-10T03:52:54;9.98;;;9.07;;
15159;SDS011;7680;48.800;9.680;2023-06-10T03:55:28;10.57;;;9.75;;
15159;SDS011;7680;48.800;9.680;2023-06-10T03:58:03;10.00;;;9.05;;
15159;SDS011;7680;48.800;9.680;2023-06-10T04:00:36;9.43;;;8.73;;
15159;SDS011;7680;48.800;9.680;2023-06-10T04:03:12;9.63;;;8.93;;
15159;SDS011;7680;48.800;9.680;2023-06-10T04:05:46;9.88;;;9.18;;
15159;SDS011;7680;48.800;9.680;2023-06-10T04:08:21;9.07;;;8.38;;
15159;SDS011;7680;48.800;9.680;2023-06-10T04:10:55;10.48;;;9.68;;
15159;SDS011;7680;48.800;9.680;2023-06-10T04:13:30;9.85;;;9.15;;
15159;SDS011;7680;48.800;9.680;2023-06-10T04:16:03;10.63;;;9.73;;
15159;SDS011;7680;48.800;9.680;2023-06-10T04:18:37;10.73;;;9.93;;
15159;SDS011;7680;48.800;9.680;2023-06-10T04:21:10;9.85;;;9.05;;
15159;SDS011;7680;48.800;9.680;2023-06-10T04:23:43;10.13;;;9.32;;
15159;SDS011;7680;48.800;9.680;2023-06-10T04:26:16;10.27;;;9.57;;
15159;SDS011;7680;48.800;9.680;2023-06-10T04:28:51;10.65;;;9.88;;
15159;SDS011;7680;48.800;9.680;2023-06-10T04:31:24;10.35;;;9.60;;
15159;SDS011;7680;48.800;9.680;2023-06-10T04:33:57;9.48;;;8.77;;
15159;SDS011;7680;48.800;9.680;2023-06-10T04:36:32;10.70;;;9.60;;
15159;SDS011;7680;48.800;9.680;2023-06-10T04:39:05;15.60;;;14.18;;
15159;SDS011;7680;48.800;9.680;2023-06-10T04:41:38;27.48;;;24.85;;
15159;SDS011;7680;48.800;9.680;2023-06-10T04:44:12;18.33;;;16.63;;
15159;SDS011;7680;48.800;9.680;2023-06-10T04:46:45;13.30;;;12.20;;
15159;SDS011;7680;48.800;9.680;2023-06-10T04:49:19;13.15;;;12.05;;
15159;SDS011;7680;48.800;9.680;2023-06-10T04:51:52;10.98;;;10.07;;
15159;SDS011;7680;48.800;9.680;2023-06-10T04:54:25;10.38;;;9.48;;
15159;SDS011;7680;48.800;9.680;2023-06-10T04:56:58;9.68;;;8.88;;
15159;SDS011;7680;48.800;9.680;2023-06-10T04:59:33;9.05;;;8.25;;
15159;SDS011;7680;48.800;9.680;2023-06-10T05:02:08;8.68;;;7.97;;
15159;SDS011;7680;48.800;9.680;2023-06-10T05:04:42;9.48;;;8.77;;
15159;SDS011;7680;48.800;9.680;2023-06-10T05:07:15;10.00;;;9.30;;
15159;SDS011;7680;48.800;9.680;2023-06-10T05:09:48;9.10;;;8.40;;
15159;SDS011;7680;48.800;9.680;2023-06-10T05:12:21;9.55;;;8.85;;
15159;SDS011;7680;48.800;9.680;2023-06-10T05:14:56;9.98;;;9.18;;
15159;SDS011;7680;48.800;9.680;2023-06-10T05:17:29;9.02;;;8.43;;
15159;SDS011;7680;48.800;9.680;2023-06-10T05:20:02;8.82;;;8.20;;
15159;SDS011;7680;48.800;9.680;2023-06-10T05:22:37;9.07;;;8.38;;
15159;SDS011;7680;48.800;9.680;2023-06-10T05:25:10;8.68;;;7.97;;
15159;SDS011;7680;48.800;9.680;2023-06-10T05:27:43;8.20;;;7.60;;
15159;SDS011;7680;48.800;9.680;2023-06-10T05:30:18;7.90;;;7.35;;
15159;SDS011;7680;48.800;9.680;2023-06-10T05:32:51;7.75;;;7.15;;
15159;SDS011;7680;48.800;9.680;2023-06-10T05:35:24;7.63;;;7.03;;
15159;SDS011;7680;48.800;9.680;2023-06-10T05:37:58;7.82;;;7.22;;
15159;SDS011;7680;48.800;9.680;2023-06-10T05:40:34;7.65;;;7.13;;
15159;SDS011;7680;48.800;9.680;2023-06-10T05:43:07;7.60;;;6.90;;
15159;SDS011;7680;48.800;9.680;2023-06-10T05:45:42;6.82;;;6.32;;
15159;SDS011;7680;48.800;9.680;2023-06-10T05:48:15;7.45;;;6.95;;
15159;SDS011;7680;48.800;9.680;2023-06-10T05:50:48;7.35;;;6.78;;
15159;SDS011;7680;48.800;9.680;2023-06-10T05:53:21;7.35;;;6.85;;
15159;SDS011;7680;48.800;9.680;2023-06-10T05:55:55;7.57;;;6.97;;
15159;SDS011;7680;48.800;9.680;2023-06-10T05:58:29;7.32;;;6.82;;
15159;SDS011;7680;48.800;9.680;2023-06-10T06:01:04;6.85;;;6.35;;
15159;SDS011;7680;48.800;9.680;2023-06-10T06:03:37;6.72;;;6.15;;
15159;SDS011;7680;48.800;9.680;2023-06-10T06:06:10;6.55;;;6.15;;
15159;SDS011;7680;48.800;9.680;2023-06-10T06:08:43;7.00;;;6.50;;
15159;SDS011;7680;48.800;9.680;2023-06-10T06:11:17;6.82;;;6.32;;
15159;SDS011;7680;48.800;9.680;2023-06-10T06:13:50;6.55;;;6.07;;
15159;SDS011;7680;48.800;9.680;2023-06-10T06:16:25;6.97;;;6.47;;
15159;SDS011;7680;48.800;9.680;2023-06-10T06:18:58;6.28;;;5.85;;
15159;SDS011;7680;48.800;9.680;2023-06-10T06:21:31;6.43;;;6.03;;
15159;SDS011;7680;48.800;9.680;2023-06-10T06:24:05;7.13;;;6.63;;
15159;SDS011;7680;48.800;9.680;2023-06-10T06:26:39;6.72;;;6.22;;
15159;SDS011;7680;48.800;9.680;2023-06-10T06:29:12;6.20;;;5.70;;
15159;SDS011;7680;48.800;9.680;2023-06-10T06:31:46;5.97;;;5.55;;
15159;SDS011;7680;48.800;9.680;2023-06-10T06:34:19;6.70;;;6.20;;
15159;SDS011;7680;48.800;9.680;2023-06-10T06:36:53;6.18;;;5.78;;
15159;SDS011;7680;48.800;9.680;2023-06-10T06:39:26;6.00;;;5.60;;
15159;SDS011;7680;48.800;9.680;2023-06-10T06:41:59;6.07;;;5.68;;
15159;SDS011;7680;48.800;9.680;2023-06-10T06:44:32;6.57;;;6.07;;
15159;SDS011;7680;48.800;9.680;2023-06-10T06:47:07;6.10;;;5.65;;
15159;SDS011;7680;48.800;9.680;2023-06-10T06:49:40;5.90;;;5.50;;
15159;SDS011;7680;48.800;9.680;2023-06-10T06:52:13;6.05;;;5.65;;
15159;SDS011;7680;48.800;9.680;2023-06-10T06:54:47;5.68;;;5.28;;
15159;SDS011;7680;48.800;9.680;2023-06-10T06:57:20;6.00;;;5.50;;
15159;SDS011;7680;48.800;9.680;2023-06-10T06:59:54;5.85;;;5.45;;
15159;SDS011;7680;48.800;9.680;2023-06-10T07:02:28;5.68;;;5.28;;
15159;SDS011;7680;48.800;9.680;2023-06-10T07:05:03;5.95;;;5.55;;
15159;SDS011;7680;48.800;9.680;2023-06-10T07:07:37;5.60;;;5.20;;
15159;SDS011;7680;48.800;9.680;2023-06-10T07:10:11;5.32;;;5.00;;
15159;SDS011;7680;48.800;9.680;2023-06-10T07:12:44;5.55;;;5.15;;
15159;SDS011;7680;48.800;9.680;2023-06-10T07:15:17;5.07;;;4.68;;
15159;SDS011;7680;48.800;9.680;2023-06-10T07:17:52;5.38;;;5.07;;
15159;SDS011;7680;48.800;9.680;2023-06-10T07:20:25;5.65;;;5.35;;
15159;SDS011;7680;48.800;9.680;2023-06-10T07:22:58;4.90;;;4.60;;
15159;SDS011;7680;48.800;9.680;2023-06-10T07:25:31;5.60;;;5.20;;
15159;SDS011;7680;48.800;9.680;2023-06-10T07:28:04;5.30;;;4.90;;
15159;SDS011;7680;48.800;9.680;2023-06-10T07:30:37;5.60;;;5.20;;
15159;SDS011;7680;48.800;9.680;2023-06-10T07:33:12;5.22;;;4.82;;
15159;SDS011;7680;48.800;9.680;2023-06-10T07:35:45;5.55;;;5.25;;
15159;SDS011;7680;48.800;9.680;2023-06-10T07:38:18;5.22;;;4.88;;
15159;SDS011;7680;48.800;9.680;2023-06-10T07:40:51;5.65;;;5.25;;
15159;SDS011;7680;48.800;9.680;2023-06-10T07:43:25;5.65;;;5.25;;
15159;SDS011;7680;48.800;9.680;2023-06-10T07:45:58;5.55;;;5.15;;
15159;SDS011;7680;48.800;9.680;2023-06-10T07:48:32;5.70;;;5.30;;
15159;SDS011;7680;48.800;9.680;2023-06-10T07:51:06;5.15;;;4.85;;
15159;SDS011;7680;48.800;9.680;2023-06-10T07:53:39;5.72;;;5.32;;
15159;SDS011;7680;48.800;9.680;2023-06-10T07:56:12;5.38;;;4.97;;
15159;SDS011;7680;48.800;9.680;2023-06-10T07:58:45;5.20;;;4.90;;
15159;SDS011;7680;48.800;9.680;2023-06-10T08:01:18;5.32;;;4.93;;
15159;SDS011;7680;48.800;9.680;2023-06-10T08:03:53;5.25;;;4.95;;
15159;SDS011;7680;48.800;9.680;2023-06-10T08:06:26;5.90;;;5.47;;
15159;SDS011;7680;48.800;9.680;2023-06-10T08:08:59;5.40;;;5.10;;
15159;SDS011;7680;48.800;9.680;2023-06-10T08:11:32;5.60;;;5.20;;
15159;SDS011;7680;48.800;9.680;2023-06-10T08:14:05;5.45;;;5.15;;
15159;SDS011;7680;48.800;9.680;2023-06-10T08:16:38;5.90;;;5.50;;
15159;SDS011;7680;48.800;9.680;2023-06-10T08:19:13;5.90;;;5.43;;
15159;SDS011;7680;48.800;9.680;2023-06-10T08:21:46;5.55;;;5.13;;
15159;SDS011;7680;48.800;9.680;2023-06-10T08:24:19;4.60;;;4.30;;
15159;SDS011;7680;48.800;9.680;2023-06-10T08:26:52;4.38;;;4.18;;
15159;SDS011;7680;48.800;9.680;2023-06-10T08:29:26;4.50;;;4.20;;
15159;SDS011;7680;48.800;9.680;2023-06-10T08:32:00;5.22;;;4.70;;
15159;SDS011;7680;48.800;9.680;2023-06-10T08:34:35;4.93;;;4.63;;
15159;SDS011;7680;48.800;9.680;2023-06-10T08:37:08;4.95;;;4.65;;
15159;SDS011;7680;48.800;9.680;2023-06-10T08:39:41;5.20;;;4.80;;
15159;SDS011;7680;48.800;9.680;2023-06-10T08:42:17;5.20;;;4.80;;
15159;SDS011;7680;48.800;9.680;2023-06-10T08:44:59;5.40;;;5.00;;
15159;SDS011;7680;48.800;9.680;2023-06-10T08:47:34;5.32;;;4.95;;
15159;SDS011;7680;48.800;9.680;2023-06-10T08:50:10;4.70;;;4.38;;
15159;SDS011;7680;48.800;9.680;2023-06-10T08:52:44;5.13;;;4.82;;
15159;SDS011;7680;48.800;9.680;2023-06-10T08:55:21;5.60;;;5.20;;
15159;SDS011;7680;48.800;9.680;2023-06-10T08:58:03;6.00;;;5.50;;
15159;SDS011;7680;48.800;9.680;2023-06-10T09:00:36;5.90;;;5.40;;
15159;SDS011;7680;48.800;9.680;2023-06-10T09:03:09;6.05;;;5.65;;
15159;SDS011;7680;48.800;9.680;2023-06-10T09:05:44;6.00;;;5.57;;
15159;SDS011;7680;48.800;9.680;2023-06-10T09:08:17;6.07;;;5.53;;
15159;SDS011;7680;48.800;9.680;2023-06-10T09:10:51;6.03;;;5.63;;
15159;SDS011;7680;48.800;9.680;2023-06-10T09:13:24;5.75;;;5.35;;
15159;SDS011;7680;48.800;9.680;2023-06-10T09:15:57;5.90;;;5.50;;
15159;SDS011;7680;48.800;9.680;2023-06-10T09:18:32;5.68;;;5.28;;
15159;SDS011;7680;48.800;9.680;2023-06-10T09:21:07;5.63;;;5.22;;
15159;SDS011;7680;48.800;9.680;2023-06-10T09:23:40;6.30;;;5.90;;
15159;SDS011;7680;48.800;9.680;2023-06-10T09:26:15;5.78;;;5.40;;
15159;SDS011;7680;48.800;9.680;2023-06-10T09:28:48;6.10;;;5.70;;
15159;SDS011;7680;48.800;9.680;2023-06-10T09:31:22;6.75;;;6.25;;
15159;SDS011;7680;48.800;9.680;2023-06-10T09:33:56;6.15;;;5.75;;
15159;SDS011;7680;48.800;9.680;2023-06-10T09:36:40;6.07;;;5.68;;
15159;SDS011;7680;48.800;9.680;2023-06-10T09:39:14;5.68;;;5.28;;
15159;SDS011;7680;48.800;9.680;2023-06-10T09:41:49;6.20;;;5.70;;
15159;SDS011;7680;48.800;9.680;2023-06-10T09:44:22;6.30;;;5.80;;
15159;SDS011;7680;48.800;9.680;2023-06-10T09:46:56;6.30;;;5.80;;
15159;SDS011;7680;48.800;9.680;2023-06-10T09:49:30;5.30;;;4.97;;
15159;SDS011;7680;48.800;9.680;2023-06-10T09:52:05;4.82;;;4.43;;
15159;SDS011;7680;48.800;9.680;2023-06-10T09:54:38;5.63;;;5.22;;
15159;SDS011;7680;48.800;9.680;2023-06-10T09:57:11;5.18;;;4.75;;
15159;SDS011;7680;48.800;9.680;2023-06-10T09:59:45;5.30;;;5.00;;
15159;SDS011;7680;48.800;9.680;2023-06-10T10:02:19;5.30;;;4.93;;
15159;SDS011;7680;48.800;9.680;2023-06-10T10:04:52;5.30;;;4.90;;
15159;SDS011;7680;48.800;9.680;2023-06-10T10:07:27;5.00;;;4.70;;
15159;SDS011;7680;48.800;9.680;2023-06-10T10:10:00;5.95;;;5.55;;
15159;SDS011;7680;48.800;9.680;2023-06-10T10:12:34;5.35;;;4.95;;
15159;SDS011;7680;48.800;9.680;2023-06-10T10:15:11;5.95;;;5.55;;
15159;SDS011;7680;48.800;9.680;2023-06-10T10:17:44;5.40;;;5.10;;
15159;SDS011;7680;48.800;9.680;2023-06-10T10:20:24;5.40;;;5.10;;
15159;SDS011;7680;48.800;9.680;2023-06-10T10:23:03;5.72;;;5.32;;
15159;SDS011;7680;48.800;9.680;2023-06-10T10:25:39;5.60;;;5.20;;
15159;SDS011;7680;48.800;9.680;2023-06-10T10:28:13;5.57;;;5.15;;
15159;SDS011;7680;48.800;9.680;2023-06-10T10:30:51;6.30;;;5.80;;
15159;SDS011;7680;48.800;9.680;2023-06-10T10:33:27;5.75;;;5.30;;
15159;SDS011;7680;48.800;9.680;2023-06-10T10:36:11;6.15;;;5.65;;
15159;SDS011;7680;48.800;9.680;2023-06-10T10:38:47;5.70;;;5.32;;
15159;SDS011;7680;48.800;9.680;2023-06-10T10:41:23;6.13;;;5.70;;
15159;SDS011;7680;48.800;9.680;2023-06-10T10:43:58;5.75;;;5.35;;
15159;SDS011;7680;48.800;9.680;2023-06-10T10:46:37;5.95;;;5.40;;
15159;SDS011;7680;48.800;9.680;2023-06-10T10:49:16;5.28;;;4.97;;
15159;SDS011;7680;48.800;9.680;2023-06-10T10:52:00;5.45;;;5.07;;
15159;SDS011;7680;48.800;9.680;2023-06-10T10:54:39;5.95;;;5.50;;
15159;SDS011;7680;48.800;9.680;2023-06-10T10:57:18;6.47;;;5.97;;
15159;SDS011;7680;48.800;9.680;2023-06-10T10:59:54;7.10;;;6.50;;
15159;SDS011;7680;48.800;9.680;2023-06-10T11:02:32;5.60;;;5.20;;
15159;SDS011;7680;48.800;9.680;2023-06-10T11:05:10;6.63;;;5.93;;
15159;SDS011;7680;48.800;9.680;2023-06-10T11:07:51;5.43;;;4.95;;
15159;SDS011;7680;48.800;9.680;2023-06-10T11:10:31;6.18;;;5.78;;
15159;SDS011;7680;48.800;9.680;2023-06-10T11:13:07;6.60;;;6.20;;
15159;SDS011;7680;48.800;9.680;2023-06-10T11:15:44;6.13;;;5.63;;
15159;SDS011;7680;48.800;9.680;2023-06-10T11:18:22;5.85;;;5.35;;
15159;SDS011;7680;48.800;9.680;2023-06-10T11:20:58;5.90;;;5.50;;
15159;SDS011;7680;48.800;9.680;2023-06-10T11:23:34;5.60;;;5.20;;
15159;SDS011;7680;48.800;9.680;2023-06-10T11:26:15;5.70;;;5.30;;
15159;SDS011;7680;48.800;9.680;2023-06-10T11:29:04;5.07;;;4.78;;
15159;SDS011;7680;48.800;9.680;2023-06-10T11:31:45;4.82;;;4.43;;
15159;SDS011;7680;48.800;9.680;2023-06-10T11:34:23;4.53;;;4.22;;
15159;SDS011;7680;48.800;9.680;2023-06-10T11:36:58;5.10;;;4.70;;
15159;SDS011;7680;48.800;9.680;2023-06-10T11:39:31;5.03;;;4.63;;
15159;SDS011;7680;48.800;9.680;2023-06-10T11:42:07;4.82;;;4.53;;
15159;SDS011;7680;48.800;9.680;2023-06-10T11:44:43;4.53;;;4.22;;
15159;SDS011;7680;48.800;9.680;2023-06-10T11:47:21;4.30;;;4.00;;
15159;SDS011;7680;48.800;9.680;2023-06-10T11:49:55;4.50;;;4.20;;
15159;SDS011;7680;48.800;9.680;2023-06-10T11:52:29;4.28;;;4.00;;
15159;SDS011;7680;48.800;9.680;2023-06-10T11:55:05;4.70;;;4.40;;
15159;SDS011;7680;48.800;9.680;2023-06-10T11:57:43;5.20;;;4.75;;
15159;SDS011;7680;48.800;9.680;2023-06-10T12:00:16;4.90;;;4.50;;
15159;SDS011;7680;48.800;9.680;2023-06-10T12:02:55;4.80;;;4.50;;
15159;SDS011;7680;48.800;9.680;2023-06-10T12:05:29;5.10;;;4.70;;
15159;SDS011;7680;48.800;9.680;2023-06-10T12:08:08;4.65;;;4.35;;
15159;SDS011;7680;48.800;9.680;2023-06-10T12:10:43;5.00;;;4.60;;
15159;SDS011;7680;48.800;9.680;2023-06-10T12:13:17;4.72;;;4.43;;
15159;SDS011;7680;48.800;9.680;2023-06-10T12:15:50;4.47;;;4.18;;
15159;SDS011;7680;48.800;9.680;2023-06-10T12:18:24;5.45;;;5.05;;
15159;SDS011;7680;48.800;9.680;2023-06-10T12:20:57;5.10;;;4.80;;
15159;SDS011;7680;48.800;9.680;2023-06-10T12:23:30;5.10;;;4.80;;
15159;SDS011;7680;48.800;9.680;2023-06-10T12:26:04;5.43;;;5.03;;
15159;SDS011;7680;48.800;9.680;2023-06-10T12:28:39;5.35;;;4.95;;
15159;SDS011;7680;48.800;9.680;2023-06-10T12:31:12;5.00;;;4.70;;
15159;SDS011;7680;48.800;9.680;2023-06-10T12:33:45;4.85;;;4.50;;
15159;SDS011;7680;48.800;9.680;2023-06-10T12:36:20;4.95;;;4.65;;
15159;SDS011;7680;48.800;9.680;2023-06-10T12:38:53;4.88;;;4.57;;
15159;SDS011;7680;48.800;9.680;2023-06-10T12:41:36;4.93;;;4.63;;
15159;SDS011;7680;48.800;9.680;2023-06-10T12:44:11;5.28;;;4.97;;
15159;SDS011;7680;48.800;9.680;2023-06-10T12:46:44;5.13;;;4.80;;
15159;SDS011;7680;48.800;9.680;2023-06-10T12:49:20;4.93;;;4.60;;
15159;SDS011;7680;48.800;9.680;2023-06-10T12:51:53;5.43;;;5.03;;
15159;SDS011;7680;48.800;9.680;2023-06-10T12:54:27;4.93;;;4.63;;
15159;SDS011;7680;48.800;9.680;2023-06-10T12:57:00;5.55;;;5.15;;
15159;SDS011;7680;48.800;9.680;2023-06-10T12:59:34;5.13;;;4.72;;
15159;SDS011;7680;48.800;9.680;2023-06-10T13:02:08;5.38;;;5.07;;
15159;SDS011;7680;48.800;9.680;2023-06-10T13:04:43;5.20;;;4.80;;
15159;SDS011;7680;48.800;9.680;2023-06-10T13:07:17;4.97;;;4.68;;
15159;SDS011;7680;48.800;9.680;2023-06-10T13:09:50;5.25;;;4.95;;
15159;SDS011;7680;48.800;9.680;2023-06-10T13:12:25;5.78;;;5.38;;
15159;SDS011;7680;48.800;9.680;2023-06-10T13:15:18;5.43;;;5.03;;
15159;SDS011;7680;48.800;9.680;2023-06-10T13:17:52;4.88;;;4.57;;
15159;SDS011;7680;48.800;9.680;2023-06-10T13:20:25;4.50;;;4.20;;
15159;SDS011;7680;48.800;9.680;2023-06-10T13:22:58;4.15;;;3.85;;
15159;SDS011;7680;48.800;9.680;2023-06-10T13:25:31;5.25;;;4.95;;
15159;SDS011;7680;48.800;9.680;2023-06-10T13:28:04;5.07;;;4.78;;
15159;SDS011;7680;48.800;9.680;2023-06-10T13:30:39;5.63;;;5.22;;
15159;SDS011;7680;48.800;9.680;2023-06-10T13:33:13;5.55;;;5.25;;
15159;SDS011;7680;48.800;9.680;2023-06-10T13:35:46;5.50;;;5.20;;
15159;SDS011;7680;48.800;9.680;2023-06-10T13:38:19;5.85;;;5.35;;
15159;SDS011;7680;48.800;9.680;2023-06-10T13:40:52;5.30;;;5.00;;
15159;SDS011;7680;48.800;9.680;2023-06-10T13:43:25;5.70;;;5.30;;
15159;SDS011;7680;48.800;9.680;2023-06-10T13:45:59;5.82;;;5.43;;
15159;SDS011;7680;48.800;9.680;2023-06-10T13:48:32;5.65;;;5.25;;
15159;SDS011;7680;48.800;9.680;2023-06-10T13:51:06;5.55;;;5.15;;
15159;SDS011;7680;48.800;9.680;2023-06-10T13:53:40;5.03;;;4.72;;
15159;SDS011;7680;48.800;9.680;2023-06-10T13:56:14;4.85;;;4.55;;
15159;SDS011;7680;48.800;9.680;2023-06-10T13:58:47;4.80;;;4.50;;
15159;SDS011;7680;48.800;9.680;2023-06-10T14:01:21;4.75;;;4.40;;
15159;SDS011;7680;48.800;9.680;2023-06-10T14:03:55;4.63;;;4.32;;
15159;SDS011;7680;48.800;9.680;2023-06-10T14:06:29;4.53;;;4.32;;
15159;SDS011;7680;48.800;9.680;2023-06-10T14:09:03;4.38;;;4.07;;
15159;SDS011;7680;48.800;9.680;2023-06-10T14:11:36;4.30;;;4.10;;
15159;SDS011;7680;48.800;9.680;2023-06-10T14:14:09;4.05;;;3.85;;
15159;SDS011;7680;48.800;9.680;2023-06-10T14:16:44;4.28;;;4.05;;
15159;SDS011;7680;48.800;9.680;2023-06-10T14:19:17;4.40;;;4.10;;
15159;SDS011;7680;48.800;9.680;2023-06-10T14:21:50;3.92;;;3.72;;
15159;SDS011;7680;48.800;9.680;2023-06-10T14:24:25;5.00;;;4.70;;
15159;SDS011;7680;48.800;9.680;2023-06-10T14:26:58;5.35;;;5.05;;
15159;SDS011;7680;48.800;9.680;2023-06-10T14:29:31;4.75;;;4.45;;
15159;SDS011;7680;48.800;9.680;2023-06-10T14:32:06;4.72;;;4.43;;
15159;SDS011;7680;48.800;9.680;2023-06-10T14:34:40;4.72;;;4.43;;
15159;SDS011;7680;48.800;9.680;2023-06-10T14:37:15;5.03;;;4.63;;
15159;SDS011;7680;48.800;9.680;2023-06-10T14:39:48;4.65;;;4.35;;
15159;SDS011;7680;48.800;9.680;2023-06-10T14:42:21;5.53;;;5.18;;
15159;SDS011;7680;48.800;9.680;2023-06-10T14:44:55;4.97;;;4.68;;
15159;SDS011;7680;48.800;9.680;2023-06-10T14:47:29;5.18;;;4.88;;
15159;SDS011;7680;48.800;9.680;2023-06-10T14:50:02;5.32;;;4.93;;
15159;SDS011;7680;48.800;9.680;2023-06-10T14:52:36;4.60;;;4.30;;
15159;SDS011;7680;48.800;9.680;2023-06-10T14:55:09;4.72;;;4.43;;
15159;SDS011;7680;48.800;9.680;2023-06-10T14:57:43;4.82;;;4.43;;
15159;SDS011;7680;48.800;9.680;2023-06-10T15:00:16;4.85;;;4.55;;
15159;SDS011;7680;48.800;9.680;2023-06-10T15:02:54;4.78;;;4.40;;
15159;SDS011;7680;48.800;9.680;2023-06-10T15:05:29;5.05;;;4.50;;
15159;SDS011;7680;48.800;9.680;2023-06-10T15:08:02;4.75;;;4.45;;
15159;SDS011;7680;48.800;9.680;2023-06-10T15:10:36;4.80;;;4.50;;
15159;SDS011;7680;48.800;9.680;2023-06-10T15:13:09;4.82;;;4.53;;
15159;SDS011;7680;48.800;9.680;2023-06-10T15:15:42;4.60;;;4.30;;
15159;SDS011;7680;48.800;9.680;2023-06-10T15:18:17;5.03;;;4.72;;
15159;SDS011;7680;48.800;9.680;2023-06-10T15:20:50;4.85;;;4.45;;
15159;SDS011;7680;48.800;9.680;2023-06-10T15:23:24;6.75;;;6.25;;
15159;SDS011;7680;48.800;9.680;2023-06-10T15:25:57;6.72;;;6.22;;
15159;SDS011;7680;48.800;9.680;2023-06-10T15:28:30;4.93;;;4.63;;
15159;SDS011;7680;48.800;9.680;2023-06-10T15:31:03;4.90;;;4.60;;
15159;SDS011;7680;48.800;9.680;2023-06-10T15:33:38;4.93;;;4.53;;
15159;SDS011;7680;48.800;9.680;2023-06-10T15:36:11;4.88;;;4.57;;
15159;SDS011;7680;48.800;9.680;2023-06-10T15:38:45;4.63;;;4.32;;